»·PEaware :: N111BH KHRU-KIML

N111BH :: KHRU-KIML

FLIGHT INFORMATION

Flight Status: Arrived
Operator: Privately registered:
United States
More flights under this callsign
Pilot: Ben H. (9170)
Aircraft: PIPER PA-28R-201 ARROW
(P28R)
More flights by this aircraft type
Origin: KHRU Herington Regl
United States
Destination: KIML Imperial Mun
United States
More flights between these airports :: More routes between these airports
Route: +
File this flight plan on PilotEdge
Remarks:
Altitude:
(Current/Filed)
8,500ft
Speed:
(Current/Filed)
130kts
Departed: 12-Jan-18 09:57 PM
Arrived: 12-Jan-18 11:57 PM
Distance/Time
Traveled:
248nm/2:00
Distance/Time
To Go:
Arrived

Flight Plot

Page will automatically refresh every two minutes.

Flight plan parsing failed; only flown route is shown


Map Options




Map Legend


Flown Route
Filed Route
Departure Airport
Arrival Airport
Navaid (VOR, NDB)
Fix

Horizontal Profiles

Position Reports

Time Latitude Longitude Heading Altitude Ground
Speed
12-Jan-18 21:58 38.680374 -96.810187 183 1483ft 8kts
12-Jan-18 21:59 38.679659 -96.809165 179 1483ft 7kts
12-Jan-18 22:00 38.677590 -96.808632 44 1483ft 0kts
12-Jan-18 22:01 38.677590 -96.808632 44 1483ft 0kts
12-Jan-18 22:02 38.677581 -96.808493 102 1483ft 0kts
12-Jan-18 22:03 38.685940 -96.808156 350 1716ft 70kts
12-Jan-18 22:04 38.699170 -96.825128 304 2883ft 73kts
12-Jan-18 22:05 38.709620 -96.848740 305 3749ft 78kts
12-Jan-18 22:06 38.720183 -96.872708 304 4534ft 78kts
12-Jan-18 22:07 38.730504 -96.897457 302 5300ft 79kts
12-Jan-18 22:08 38.740910 -96.922889 308 6064ft 86kts
12-Jan-18 22:09 38.753529 -96.950542 302 6711ft 89kts
12-Jan-18 22:10 38.765387 -96.979239 302 7287ft 92kts
12-Jan-18 22:11 38.777277 -97.008092 302 7854ft 93kts
12-Jan-18 22:12 38.789339 -97.037446 302 8413ft 93kts
12-Jan-18 22:13 38.804237 -97.072544 302 8462ft 127kts
12-Jan-18 22:14 38.821586 -97.112671 302 8460ft 130kts
12-Jan-18 22:15 38.839178 -97.153468 302 8460ft 130kts
12-Jan-18 22:16 38.856409 -97.193652 302 8460ft 131kts
12-Jan-18 22:17 38.873945 -97.234898 302 8464ft 131kts
12-Jan-18 22:18 38.891431 -97.276260 301 8461ft 131kts
12-Jan-18 22:19 38.908980 -97.317906 301 8460ft 131kts
12-Jan-18 22:20 38.926338 -97.359202 301 8457ft 132kts
12-Jan-18 22:21 38.943643 -97.400578 301 8458ft 132kts
12-Jan-18 22:22 38.960393 -97.441456 301 8485ft 128kts
12-Jan-18 22:23 38.977006 -97.482102 301 8491ft 129kts
12-Jan-18 22:24 38.993460 -97.523014 300 8485ft 129kts
12-Jan-18 22:25 39.009709 -97.564498 301 8456ft 132kts
12-Jan-18 22:26 39.026216 -97.606279 300 8460ft 131kts
12-Jan-18 22:27 39.043445 -97.647591 301 8452ft 131kts
12-Jan-18 22:28 39.060249 -97.688831 299 8460ft 130kts
12-Jan-18 22:29 39.076858 -97.730632 300 8457ft 131kts
12-Jan-18 22:30 39.093060 -97.772742 299 8456ft 131kts
12-Jan-18 22:31 39.108816 -97.814565 299 8463ft 131kts
12-Jan-18 22:32 39.124795 -97.857013 297 8470ft 131kts
12-Jan-18 22:33 39.140291 -97.900089 297 8463ft 132kts
12-Jan-18 22:34 39.155595 -97.943094 296 8457ft 132kts
12-Jan-18 22:35 39.170956 -97.986308 297 8463ft 132kts
12-Jan-18 22:36 39.186154 -98.029206 297 8461ft 132kts
12-Jan-18 22:37 39.201271 -98.072071 297 8454ft 131kts
12-Jan-18 22:38 39.216223 -98.114754 296 8487ft 131kts
12-Jan-18 22:39 39.231298 -98.158010 297 8484ft 132kts
12-Jan-18 22:40 39.246754 -98.200699 298 8489ft 131kts
12-Jan-18 22:41 39.262326 -98.243597 298 8487ft 131kts
12-Jan-18 22:42 39.278674 -98.286042 299 8485ft 131kts
12-Jan-18 22:43 39.295026 -98.327897 300 8483ft 130kts
12-Jan-18 22:44 39.311380 -98.370000 300 8482ft 131kts
12-Jan-18 22:45 39.327655 -98.412298 299 8484ft 131kts
12-Jan-18 22:46 39.343905 -98.454583 299 8485ft 131kts
12-Jan-18 22:47 39.360191 -98.497048 299 8484ft 131kts
12-Jan-18 22:48 39.375602 -98.537563 300 8488ft 131kts
12-Jan-18 22:49 39.391784 -98.580105 298 8488ft 132kts
12-Jan-18 22:50 39.407829 -98.622508 299 8485ft 131kts
12-Jan-18 22:51 39.423526 -98.664166 298 8485ft 132kts
12-Jan-18 22:52 39.439296 -98.706240 298 8490ft 131kts
12-Jan-18 22:53 39.455207 -98.749037 297 8492ft 132kts
12-Jan-18 22:54 39.471106 -98.791650 298 8482ft 131kts
12-Jan-18 22:55 39.487277 -98.834456 302 8473ft 132kts
12-Jan-18 22:56 39.503969 -98.877282 302 8476ft 133kts
12-Jan-18 22:57 39.520720 -98.920457 300 8453ft 133kts
12-Jan-18 22:58 39.537445 -98.963392 298 8458ft 134kts
12-Jan-18 22:59 39.554024 -99.006462 299 8470ft 134kts
12-Jan-18 23:00 39.570912 -99.048855 298 8468ft 131kts
12-Jan-18 23:01 39.587628 -99.090764 299 8465ft 131kts
12-Jan-18 23:02 39.604198 -99.132634 299 8471ft 131kts
12-Jan-18 23:03 39.620672 -99.174735 299 8467ft 131kts
12-Jan-18 23:04 39.637125 -99.216862 298 8464ft 130kts
12-Jan-18 23:05 39.653525 -99.258680 299 8475ft 130kts
12-Jan-18 23:06 39.669903 -99.300642 299 8471ft 130kts
12-Jan-18 23:07 39.686319 -99.342868 297 8466ft 131kts
12-Jan-18 23:08 39.702553 -99.384837 298 8466ft 130kts
12-Jan-18 23:09 39.718875 -99.427131 298 8472ft 130kts
12-Jan-18 23:10 39.735027 -99.469074 299 8467ft 131kts
12-Jan-18 23:11 39.751199 -99.511341 297 8468ft 130kts
12-Jan-18 23:12 39.767287 -99.553619 298 8475ft 130kts
12-Jan-18 23:13 39.783285 -99.595842 298 8462ft 130kts
12-Jan-18 23:14 39.799262 -99.638104 298 8471ft 130kts
12-Jan-18 23:15 39.815013 -99.680334 297 8470ft 130kts
12-Jan-18 23:16 39.831093 -99.723260 297 8468ft 131kts
12-Jan-18 23:17 39.847166 -99.766046 297 8469ft 131kts
12-Jan-18 23:18 39.863134 -99.808721 297 8470ft 131kts
12-Jan-18 23:19 39.879138 -99.851689 297 8469ft 132kts
12-Jan-18 23:20 39.895020 -99.894500 297 8469ft 132kts
12-Jan-18 23:21 39.910976 -99.937656 297 8468ft 131kts
12-Jan-18 23:22 39.926834 -99.980737 297 8469ft 132kts
12-Jan-18 23:23 39.942688 -100.023812 296 8438ft 134kts
12-Jan-18 23:24 39.959174 -100.068110 297 8439ft 135kts
12-Jan-18 23:25 39.974218 -100.113344 295 8439ft 136kts
12-Jan-18 23:26 39.989618 -100.158659 295 8445ft 136kts
12-Jan-18 23:27 40.004795 -100.204016 293 8448ft 136kts
12-Jan-18 23:28 40.018939 -100.250128 292 8445ft 137kts
12-Jan-18 23:29 40.033294 -100.296141 294 8443ft 137kts
12-Jan-18 23:30 40.047929 -100.341980 294 8442ft 136kts
12-Jan-18 23:31 40.063511 -100.387250 298 8441ft 136kts
12-Jan-18 23:32 40.080064 -100.431619 297 8441ft 136kts
12-Jan-18 23:33 40.096584 -100.476051 296 8443ft 136kts
12-Jan-18 23:34 40.112819 -100.519963 297 8446ft 136kts
12-Jan-18 23:35 40.129366 -100.564834 297 8443ft 136kts
12-Jan-18 23:36 40.145980 -100.609766 298 8444ft 138kts
12-Jan-18 23:37 40.162816 -100.654576 296 8443ft 138kts
12-Jan-18 23:38 40.179586 -100.699466 297 8442ft 138kts
12-Jan-18 23:39 40.195996 -100.744927 295 8443ft 137kts
12-Jan-18 23:40 40.212063 -100.790237 296 8438ft 137kts
12-Jan-18 23:41 40.228108 -100.835678 297 8438ft 137kts
12-Jan-18 23:42 40.244005 -100.880905 296 8438ft 137kts
12-Jan-18 23:43 40.259979 -100.926489 296 8443ft 138kts
12-Jan-18 23:44 40.275140 -100.972773 294 8439ft 138kts
12-Jan-18 23:45 40.289785 -101.019166 293 8441ft 137kts
12-Jan-18 23:46 40.304328 -101.065547 293 8406ft 139kts
12-Jan-18 23:47 40.318894 -101.113459 293 8017ft 141kts
12-Jan-18 23:48 40.332671 -101.161477 292 7690ft 140kts
12-Jan-18 23:49 40.346095 -101.209472 291 7337ft 139kts
12-Jan-18 23:50 40.360459 -101.256056 293 6990ft 139kts
12-Jan-18 23:51 40.374536 -101.302918 293 6644ft 138kts
12-Jan-18 23:52 40.388154 -101.349289 293 6247ft 136kts
12-Jan-18 23:53 40.388328 -101.395780 234 5769ft 132kts
12-Jan-18 23:54 40.365304 -101.435589 233 5252ft 138kts
12-Jan-18 23:55 40.360636 -101.477612 321 4816ft 123kts
12-Jan-18 23:56 40.386081 -101.505048 322 4895ft 124kts
12-Jan-18 23:57 40.409148 -101.528201 328 4899ft 126kts
12-Jan-18 23:58 40.443267 -101.557734 325 4579ft 125kts
12-Jan-18 23:59 40.461739 -101.575099 321 4143ft 75kts
13-Jan-18 00:00 40.477737 -101.590774 323 3916ft 70kts
13-Jan-18 00:01 40.492823 -101.604964 326 3607ft 64kts
13-Jan-18 00:02 40.506917 -101.618283 322 3279ft 57kts
13-Jan-18 00:03 40.514403 -101.625473 322 3278ft 12kts
13-Jan-18 00:04 40.512640 -101.626869 181 3278ft 10kts

Navigation Log

Ident Type
Flight plan parsing failed, navigation log unavailable